Archer City, Texas
Current Conditions -  °F | °C
As of 10:35 PM on Friday 19 Dec 2014 (Local Time) from KCWC Reporting Station
Overcast Overcast  
Wind Chill: 44°   Ceiling: 1800
Heat Index: 44°   Visibility: 10mi
Dew Point: 40°   Wind: 3mph
Humidity: 84%   Direction: 80°E
Pressure: 30.24"   Gusts: NA
Location:  33.6°N, 98.63°W
Report Text: KCWC 200435Z AUTO 08003KT 10SM OVC018 07/04 A3024 RMK AO2 T00670042
Loading
Personal Weather Stations






























Interactive Weather Map New forecast layout! Learn more

10-Day Weather Forecast

Advertisements
Track Severe Weather on mobile